Terminal Aerodrome Forecast
Issued by NWS Twin Cities, MN

Home | Current Version | Previous Version | Text Only | Print | Product List | Glossary On
Versions: 1 2 3 4 5 6 7 8 9 10 11 12 13 14
000
FTUS43 KMPX 251139
TAFEAU
TAF
KEAU 251139Z 2512/2612 13006KT 2SM BR VCSH OVC003
     FM251400 18006KT 4SM -RA BR OVC006
     FM251800 21011KT P6SM OVC012
     FM252100 24012KT P6SM OVC030
     FM260000 22007KT P6SM FEW020 OVC040
     FM260400 20004KT 4SM BR OVC020
     FM260800 VRB03KT 2SM BR OVC005=

USA.gov is the U.S. government's official web portal to all federal, state and local government web resources and services.